createdAt,value
2022-08-17T00:00:33.252Z,88.35
2022-08-17T00:03:19.408Z,89.01
2022-08-17T00:06:13.668Z,89.51
2022-08-17T00:08:48.498Z,90.01
2022-08-17T00:11:19.598Z,90.36
2022-08-17T00:13:50.351Z,90.72
2022-08-17T00:16:56.169Z,91.06
2022-08-17T00:19:13.393Z,91.22
2022-08-17T00:22:32.857Z,91.37
2022-08-17T00:24:33.131Z,91.69
2022-08-17T00:26:59.725Z,91.72
2022-08-17T00:29:26.365Z,91.59
2022-08-17T00:31:53.816Z,92.11
2022-08-17T00:34:20.658Z,92.60
2022-08-17T00:36:47.266Z,92.23
2022-08-17T00:39:14.855Z,92.42
2022-08-17T00:41:42.571Z,92.48
2022-08-17T00:44:09.727Z,92.42
2022-08-17T00:46:41.017Z,92.56
2022-08-17T00:49:11.389Z,93.18
2022-08-17T00:51:56.760Z,93.42
2022-08-17T00:54:31.011Z,93.23
2022-08-17T00:57:07.136Z,93.55
2022-08-17T01:00:02.943Z,93.49
2022-08-17T01:02:41.479Z,93.69
2022-08-17T01:05:19.776Z,93.84
2022-08-17T01:07:52.301Z,94.30
2022-08-17T01:10:57.254Z,94.19
2022-08-17T01:13:14.054Z,94.27
2022-08-17T01:15:46.408Z,93.81
2022-08-17T01:18:14.655Z,94.25
2022-08-17T01:20:48.748Z,94.71
2022-08-17T01:23:20.474Z,94.85
2022-08-17T01:26:01.765Z,94.90
2022-08-17T01:28:52.477Z,95.27
2022-08-17T01:31:19.698Z,95.74
2022-08-17T01:33:46.405Z,95.93
2022-08-17T01:36:13.270Z,95.66
2022-08-17T01:38:40.318Z,96.19
2022-08-17T01:41:13.498Z,95.99
2022-08-17T01:43:53.893Z,96.29
2022-08-17T01:46:27.159Z,96.06
2022-08-17T01:48:56.256Z,96.14
2022-08-17T01:51:27.779Z,96.22
2022-08-17T01:53:58.190Z,96.33
2022-08-17T01:56:27.787Z,96.34
2022-08-17T01:58:54.910Z,96.90
2022-08-17T02:01:28.918Z,96.88
2022-08-17T02:04:00.741Z,96.71
2022-08-17T02:06:31.472Z,97.22
2022-08-17T02:09:16.919Z,96.98
2022-08-17T02:11:44.721Z,97.64
2022-08-17T02:14:13.407Z,97.13
2022-08-17T02:16:41.122Z,97.56
2022-08-17T02:19:11.863Z,97.79
2022-08-17T02:21:40.001Z,97.80
2022-08-17T02:24:10.930Z,97.69
2022-08-17T02:26:37.605Z,97.61
2022-08-17T02:29:04.365Z,98.14
2022-08-17T02:31:33.717Z,98.25
2022-08-17T02:34:04.687Z,98.51
2022-08-17T02:36:36.084Z,98.66
2022-08-17T02:39:05.732Z,98.62
2022-08-17T02:41:32.496Z,99.19
2022-08-17T02:44:02.379Z,99.03
2022-08-17T02:46:30.370Z,98.90
2022-08-17T02:48:57.502Z,99.17
2022-08-17T02:51:24.901Z,99.35
2022-08-17T02:53:52.129Z,99.47
2022-08-17T02:56:18.733Z,99.29
2022-08-17T02:58:46.425Z,99.19
2022-08-17T03:01:13.605Z,99.35
2022-08-17T03:03:40.583Z,99.29
2022-08-17T03:06:08.126Z,99.16
2022-08-17T03:08:37.386Z,99.75
2022-08-17T03:11:04.307Z,100.00
2022-08-17T03:13:31.007Z,99.88
2022-08-17T03:15:57.871Z,99.60
2022-08-17T03:18:26.377Z,99.07
2022-08-17T03:20:59.420Z,99.74
2022-08-17T03:23:27.731Z,100.00
2022-08-17T03:25:57.078Z,100.00
2022-08-17T03:28:24.186Z,100.00
2022-08-17T03:30:51.706Z,99.79
2022-08-17T03:33:19.310Z,100.00
2022-08-17T03:35:46.635Z,99.99
2022-08-17T03:38:16.984Z,100.00
2022-08-17T03:40:56.705Z,100.00
2022-08-17T03:43:29.440Z,100.00
2022-08-17T03:46:28.943Z,100.00
2022-08-17T03:49:25.486Z,100.00
2022-08-17T03:52:12.264Z,100.00
2022-08-17T03:54:58.442Z,100.00
2022-08-17T03:57:27.138Z,100.00
2022-08-17T03:59:55.199Z,100.00
2022-08-17T04:02:26.774Z,100.00
2022-08-17T04:04:54.198Z,100.00
2022-08-17T04:07:23.341Z,100.00
2022-08-17T04:09:51.292Z,100.00
2022-08-17T04:12:19.759Z,100.00
2022-08-17T04:14:53.699Z,100.00
2022-08-17T04:17:27.384Z,100.00
2022-08-17T04:19:55.204Z,100.00
2022-08-17T04:22:32.258Z,100.00
2022-08-17T04:25:20.121Z,100.00
2022-08-17T04:27:48.670Z,100.00
2022-08-17T04:30:15.794Z,100.00
2022-08-17T04:33:03.435Z,100.00
2022-08-17T04:35:49.144Z,100.00
2022-08-17T04:38:25.263Z,100.00
2022-08-17T04:41:11.518Z,100.00
2022-08-17T04:43:43.008Z,100.00
2022-08-17T04:46:17.048Z,100.00
2022-08-17T04:48:46.423Z,100.00
2022-08-17T04:51:18.516Z,100.00
2022-08-17T04:53:53.909Z,100.00
2022-08-17T04:56:22.500Z,100.00
2022-08-17T04:58:51.658Z,100.00
2022-08-17T05:01:23.664Z,100.00
2022-08-17T05:03:57.115Z,100.00
2022-08-17T05:06:23.859Z,100.00
2022-08-17T05:08:50.760Z,100.00
2022-08-17T05:11:17.646Z,100.00
2022-08-17T05:13:44.701Z,100.00
2022-08-17T05:16:12.002Z,100.00
2022-08-17T05:18:39.047Z,100.00
2022-08-17T05:21:06.926Z,100.00
2022-08-17T05:23:42.515Z,100.00
2022-08-17T05:26:25.819Z,100.00
2022-08-17T05:29:00.335Z,100.00
2022-08-17T05:31:29.631Z,100.00
2022-08-17T05:33:56.620Z,100.00
2022-08-17T05:36:41.861Z,100.00
2022-08-17T05:39:14.379Z,100.00
2022-08-17T05:41:43.477Z,100.00
2022-08-17T05:44:10.794Z,100.00
2022-08-17T05:46:41.919Z,100.00
2022-08-17T05:49:09.474Z,100.00
2022-08-17T05:51:51.401Z,100.00
2022-08-17T05:54:36.777Z,100.00
2022-08-17T05:57:28.446Z,100.00
2022-08-17T06:00:03.882Z,100.00
2022-08-17T06:02:54.698Z,100.00
2022-08-17T06:05:40.274Z,100.00
2022-08-17T06:08:20.656Z,100.00
2022-08-17T06:11:02.260Z,100.00
2022-08-17T06:13:42.186Z,100.00
2022-08-17T06:16:34.397Z,100.00
2022-08-17T06:19:24.444Z,100.00
2022-08-17T06:21:55.800Z,100.00
2022-08-17T06:24:37.769Z,100.00
2022-08-17T06:27:30.358Z,100.00
2022-08-17T06:30:09.367Z,100.00
2022-08-17T06:32:42.697Z,100.00
2022-08-17T06:35:12.728Z,100.00
2022-08-17T06:38:37.178Z,100.00
2022-08-17T06:41:22.397Z,99.43
2022-08-17T06:44:42.294Z,96.00
2022-08-17T06:47:28.155Z,97.00
2022-08-17T06:50:05.456Z,97.47
2022-08-17T06:52:55.529Z,97.01
2022-08-17T06:55:37.915Z,95.99
2022-08-17T06:58:15.822Z,94.44
2022-08-17T07:00:47.250Z,92.15
2022-08-17T07:03:37.781Z,90.93
2022-08-17T07:06:24.978Z,89.26
2022-08-17T07:08:59.129Z,86.99
2022-08-17T07:11:50.462Z,88.03
2022-08-17T07:14:38.293Z,87.99
2022-08-17T07:17:13.943Z,84.76
2022-08-17T07:19:44.001Z,84.71
2022-08-17T07:22:26.132Z,84.39
2022-08-17T07:24:59.579Z,83.51
2022-08-17T07:27:27.742Z,83.08
2022-08-17T07:30:01.710Z,81.85
2022-08-17T07:32:34.307Z,80.80
2022-08-17T07:35:15.857Z,80.87
2022-08-17T07:37:53.012Z,80.56
2022-08-17T07:40:28.128Z,80.17
2022-08-17T07:43:23.190Z,79.80
2022-08-17T07:46:15.629Z,78.29
2022-08-17T07:48:46.337Z,79.99
2022-08-17T07:51:36.135Z,81.26
2022-08-17T07:54:22.579Z,79.31
2022-08-17T07:57:12.791Z,77.67
2022-08-17T07:59:43.168Z,76.63
2022-08-17T08:02:29.536Z,74.20
2022-08-17T08:05:12.797Z,74.62
2022-08-17T08:07:53.666Z,74.53
2022-08-17T08:10:45.565Z,73.17
2022-08-17T08:13:24.966Z,72.65
2022-08-17T08:15:55.337Z,70.71
2022-08-17T08:18:53.405Z,68.52
2022-08-17T08:21:24.270Z,67.86
2022-08-17T08:24:36.604Z,66.78
2022-08-17T08:27:30.610Z,66.89
2022-08-17T08:30:06.409Z,66.16
2022-08-17T08:32:51.246Z,66.15
2022-08-17T08:35:30.760Z,65.68
2022-08-17T08:38:14.731Z,65.46
2022-08-17T08:41:16.446Z,64.17
2022-08-17T08:43:53.121Z,63.81
2022-08-17T08:46:50.958Z,61.13
2022-08-17T08:50:03.568Z,62.91
2022-08-17T08:52:39.942Z,61.75
2022-08-17T08:55:16.919Z,58.48
2022-08-17T08:58:01.668Z,58.68
2022-08-17T09:00:35.746Z,57.59
2022-08-17T09:03:11.373Z,57.53
2022-08-17T09:06:37.776Z,57.46
2022-08-17T09:09:29.398Z,57.07
2022-08-17T09:12:07.904Z,56.07
2022-08-17T09:14:49.518Z,57.33
2022-08-17T09:17:21.156Z,57.28
2022-08-17T09:20:05.775Z,54.34
2022-08-17T09:22:38.551Z,55.16
2022-08-17T09:25:09.041Z,54.44
2022-08-17T09:28:00.557Z,55.63
2022-08-17T09:30:38.959Z,51.81
2022-08-17T09:33:08.613Z,53.97
2022-08-17T09:35:44.521Z,53.61
2022-08-17T09:38:50.202Z,52.39
2022-08-17T09:41:48.716Z,52.84
2022-08-17T09:44:29.470Z,49.70
2022-08-17T09:47:08.039Z,49.89
2022-08-17T09:49:51.180Z,49.80
2022-08-17T09:52:25.562Z,48.89
2022-08-17T09:54:54.511Z,47.24
2022-08-17T09:57:32.465Z,47.77
2022-08-17T10:00:12.134Z,45.87
2022-08-17T10:03:00.648Z,46.49
2022-08-17T10:05:39.716Z,44.95
2022-08-17T10:08:15.088Z,45.52
2022-08-17T10:10:56.632Z,43.87
2022-08-17T10:13:59.600Z,42.38
2022-08-17T10:16:47.486Z,44.00
2022-08-17T10:19:35.362Z,43.57
2022-08-17T10:22:34.692Z,42.96
2022-08-17T10:25:27.857Z,44.40
2022-08-17T10:28:19.737Z,42.16
2022-08-17T10:31:16.714Z,41.67
2022-08-17T10:33:57.643Z,41.70
2022-08-17T10:36:39.885Z,41.85
2022-08-17T10:39:20.551Z,40.34
2022-08-17T10:41:51.067Z,38.77
2022-08-17T10:44:40.164Z,37.96
2022-08-17T10:47:17.027Z,39.58
2022-08-17T10:49:53.891Z,39.43
2022-08-17T10:52:25.967Z,41.19
2022-08-17T10:54:54.902Z,39.40
2022-08-17T10:57:31.834Z,38.30
2022-08-17T11:00:06.953Z,39.66
2022-08-17T11:02:50.295Z,37.64
2022-08-17T11:05:22.297Z,39.71
2022-08-17T11:08:07.196Z,39.24
2022-08-17T11:11:01.876Z,39.37
2022-08-17T11:13:45.923Z,38.53
2022-08-17T11:16:36.178Z,37.55
2022-08-17T11:19:32.154Z,40.03
2022-08-17T11:22:17.875Z,38.91
2022-08-17T11:24:51.215Z,39.06
2022-08-17T11:27:34.234Z,38.71
2022-08-17T11:30:09.166Z,38.67
2022-08-17T11:32:48.711Z,37.85
2022-08-17T11:35:23.060Z,38.64
2022-08-17T11:38:14.027Z,39.11
2022-08-17T11:41:03.230Z,38.85
2022-08-17T11:43:37.390Z,39.03
2022-08-17T11:46:16.727Z,39.47
2022-08-17T11:49:13.801Z,37.91
2022-08-17T11:52:04.880Z,38.16
2022-08-17T11:54:48.398Z,38.52
2022-08-17T11:57:29.501Z,38.84
2022-08-17T12:00:11.542Z,38.71
2022-08-17T12:02:48.910Z,39.45
2022-08-17T12:05:20.983Z,38.91
2022-08-17T12:07:52.670Z,39.25
2022-08-17T12:10:23.919Z,39.13
2022-08-17T12:12:53.825Z,40.24
2022-08-17T12:15:31.216Z,39.94
2022-08-17T12:17:58.727Z,39.63
2022-08-17T12:20:30.862Z,41.05
2022-08-17T12:23:09.832Z,40.70
2022-08-17T12:25:49.326Z,38.71
2022-08-17T12:28:22.751Z,38.51
2022-08-17T12:30:52.140Z,39.23
2022-08-17T12:33:25.641Z,39.33
2022-08-17T12:36:03.233Z,39.33
2022-08-17T12:38:34.409Z,39.45
2022-08-17T12:41:22.298Z,39.01
2022-08-17T12:44:02.304Z,38.40
2022-08-17T12:46:34.765Z,39.19
2022-08-17T12:49:28.849Z,41.02
2022-08-17T12:52:11.765Z,39.53
2022-08-17T12:54:42.653Z,40.56
2022-08-17T12:57:15.073Z,40.07
2022-08-17T12:59:45.851Z,41.04
2022-08-17T13:02:30.376Z,41.33
2022-08-17T13:05:00.344Z,39.95
2022-08-17T13:07:29.687Z,37.80
2022-08-17T13:09:56.746Z,38.27
2022-08-17T13:12:33.353Z,38.96
2022-08-17T13:15:00.242Z,38.85
2022-08-17T13:17:31.834Z,38.25
2022-08-17T13:19:58.879Z,38.34
2022-08-17T13:22:27.768Z,37.88
2022-08-17T13:24:58.368Z,37.50
2022-08-17T13:27:27.859Z,38.48
2022-08-17T13:30:00.043Z,38.17
2022-08-17T13:32:37.281Z,39.42
2022-08-17T13:35:32.454Z,40.37
2022-08-17T13:38:39.364Z,40.00
2022-08-17T13:41:07.424Z,41.63
2022-08-17T13:43:48.390Z,40.20
2022-08-17T13:46:31.309Z,39.44
2022-08-17T13:49:11.956Z,39.27
2022-08-17T13:51:51.770Z,39.14
2022-08-17T13:54:30.657Z,40.46
2022-08-17T13:57:05.039Z,37.47
2022-08-17T13:59:54.278Z,38.18
2022-08-17T14:02:26.068Z,38.48
2022-08-17T14:04:56.478Z,39.37
2022-08-17T14:07:31.107Z,40.77
2022-08-17T14:10:12.977Z,37.08
2022-08-17T14:12:43.569Z,37.63
2022-08-17T14:15:14.005Z,39.04
2022-08-17T14:17:40.912Z,39.95
2022-08-17T14:20:12.275Z,38.15
2022-08-17T14:22:43.988Z,38.33
2022-08-17T14:25:13.878Z,38.55
2022-08-17T14:27:52.647Z,39.39
2022-08-17T14:30:24.004Z,39.44
2022-08-17T14:32:52.265Z,40.62
2022-08-17T14:35:22.610Z,40.70
2022-08-17T14:37:50.757Z,38.85
2022-08-17T14:40:24.471Z,38.30
2022-08-17T14:42:53.034Z,39.02
2022-08-17T14:45:30.186Z,37.82
2022-08-17T14:48:07.564Z,39.80
2022-08-17T14:50:36.231Z,39.79
2022-08-17T14:53:05.419Z,39.45
2022-08-17T14:55:32.587Z,40.16
2022-08-17T14:57:59.443Z,38.42
2022-08-17T15:00:26.792Z,39.74
2022-08-17T15:02:58.926Z,39.27
2022-08-17T15:05:31.354Z,39.34
2022-08-17T15:07:58.774Z,38.83
2022-08-17T15:10:26.053Z,39.30
2022-08-17T15:12:52.882Z,40.40
2022-08-17T15:15:19.942Z,45.50
2022-08-17T15:17:46.538Z,45.64
2022-08-17T15:20:20.728Z,46.73
2022-08-17T15:22:55.934Z,43.69
2022-08-17T15:25:28.060Z,46.85
2022-08-17T15:27:55.790Z,45.38
2022-08-17T15:30:23.396Z,43.47
2022-08-17T15:32:54.977Z,45.28
2022-08-17T15:35:30.104Z,46.46
2022-08-17T15:38:10.150Z,49.51
2022-08-17T15:40:42.039Z,53.93
2022-08-17T15:43:16.416Z,58.42
2022-08-17T15:45:43.887Z,61.59
2022-08-17T15:48:11.276Z,63.41
2022-08-17T15:50:37.943Z,65.51
2022-08-17T15:53:05.786Z,67.13
2022-08-17T15:55:33.361Z,69.45
2022-08-17T15:58:00.802Z,69.93
2022-08-17T16:00:30.370Z,71.64
2022-08-17T16:03:44.451Z,71.93
2022-08-17T16:05:46.500Z,71.74
2022-08-17T16:08:18.488Z,71.92
2022-08-17T16:10:47.966Z,72.56
2022-08-17T16:13:17.335Z,74.05
2022-08-17T16:15:56.691Z,74.97
2022-08-17T16:18:31.176Z,75.42
2022-08-17T16:21:19.695Z,75.29
2022-08-17T16:23:49.119Z,75.24
2022-08-17T16:26:16.171Z,74.99
2022-08-17T16:28:42.854Z,75.79
2022-08-17T16:31:09.586Z,76.56
2022-08-17T16:33:38.946Z,76.45
2022-08-17T16:36:07.338Z,77.29
2022-08-17T16:38:38.501Z,76.71
2022-08-17T16:41:06.392Z,76.22
2022-08-17T16:43:33.997Z,75.85
2022-08-17T16:46:01.079Z,75.41
2022-08-17T16:48:28.881Z,75.67
2022-08-17T16:51:02.077Z,74.62
2022-08-17T16:53:33.183Z,74.82
2022-08-17T16:55:59.814Z,75.84
2022-08-17T16:58:26.444Z,75.50
2022-08-17T17:00:54.382Z,75.06
2022-08-17T17:03:25.815Z,75.38
2022-08-17T17:06:09.614Z,75.01
2022-08-17T17:08:49.327Z,75.15
2022-08-17T17:11:43.090Z,75.05
2022-08-17T17:14:15.520Z,74.87
2022-08-17T17:16:51.145Z,74.20
2022-08-17T17:19:34.540Z,73.70
2022-08-17T17:22:16.486Z,74.07
2022-08-17T17:25:13.641Z,74.24
2022-08-17T17:27:59.741Z,74.29
2022-08-17T17:30:37.203Z,73.63
2022-08-17T17:33:17.725Z,73.88
2022-08-17T17:35:55.402Z,74.02
2022-08-17T17:38:29.161Z,74.01
2022-08-17T17:41:04.398Z,74.27
2022-08-17T17:43:39.934Z,74.35
2022-08-17T17:46:27.637Z,74.62
2022-08-17T17:48:57.447Z,74.34
2022-08-17T17:52:06.744Z,74.66
2022-08-17T17:54:55.740Z,74.52
2022-08-17T17:58:07.895Z,74.18
2022-08-17T18:00:53.988Z,74.34
2022-08-17T18:03:56.156Z,74.79
2022-08-17T18:06:36.898Z,75.18
2022-08-17T18:09:40.821Z,75.43
2022-08-17T18:12:35.087Z,75.59
2022-08-17T18:15:18.463Z,75.70
2022-08-17T18:18:02.261Z,75.84
2022-08-17T18:20:36.061Z,76.00
2022-08-17T18:23:10.122Z,76.19
2022-08-17T18:25:51.638Z,76.63
2022-08-17T18:28:25.255Z,76.65
2022-08-17T18:31:15.322Z,76.84
2022-08-17T18:33:48.449Z,77.01
2022-08-17T18:36:30.790Z,77.19
2022-08-17T18:39:11.968Z,77.45
2022-08-17T18:41:45.102Z,77.62
2022-08-17T18:44:42.343Z,77.91
2022-08-17T18:47:15.852Z,78.11
2022-08-17T18:49:49.973Z,78.28
2022-08-17T18:52:23.502Z,78.63
2022-08-17T18:55:02.766Z,79.00
2022-08-17T18:57:39.544Z,79.40
2022-08-17T19:00:16.923Z,80.12
2022-08-17T19:03:00.536Z,81.07
2022-08-17T19:05:41.277Z,81.50
2022-08-17T19:08:18.515Z,81.97
2022-08-17T19:10:47.895Z,81.98
2022-08-17T19:13:24.505Z,82.88
2022-08-17T19:16:14.231Z,83.11
2022-08-17T19:18:59.740Z,83.17
2022-08-17T19:21:48.114Z,83.75
2022-08-17T19:24:21.180Z,84.02
2022-08-17T19:27:11.711Z,84.15
2022-08-17T19:29:57.570Z,84.62
2022-08-17T19:32:29.090Z,84.91
2022-08-17T19:34:56.777Z,85.44
2022-08-17T19:37:38.671Z,85.65
2022-08-17T19:40:35.105Z,85.84
2022-08-17T19:43:32.071Z,85.99
2022-08-17T19:46:14.066Z,86.35
2022-08-17T19:49:10.060Z,86.21
2022-08-17T19:51:36.846Z,86.58
2022-08-17T19:54:20.327Z,87.25
2022-08-17T19:57:12.130Z,87.50
2022-08-17T19:59:59.333Z,87.44
2022-08-17T20:02:57.957Z,87.61
2022-08-17T20:06:01.450Z,87.79
2022-08-17T20:08:34.799Z,88.11
2022-08-17T20:11:10.508Z,88.17
2022-08-17T20:13:50.788Z,88.86
2022-08-17T20:16:19.306Z,88.79
2022-08-17T20:19:32.596Z,88.83
2022-08-17T20:22:29.014Z,88.49
2022-08-17T20:25:30.726Z,89.01
2022-08-17T20:28:22.320Z,88.62
2022-08-17T20:30:52.329Z,88.91
2022-08-17T20:33:38.286Z,89.46
2022-08-17T20:36:05.050Z,90.01
2022-08-17T20:38:56.036Z,90.63
2022-08-17T20:41:28.967Z,90.36
2022-08-17T20:43:58.999Z,91.27
2022-08-17T20:46:38.084Z,91.28
2022-08-17T20:49:10.860Z,91.91
2022-08-17T20:52:09.504Z,91.17
2022-08-17T20:54:50.102Z,90.90
2022-08-17T20:57:32.066Z,90.90
2022-08-17T21:00:19.260Z,90.11
2022-08-17T21:02:51.242Z,90.84
2022-08-17T21:06:09.419Z,91.50
2022-08-17T21:09:16.066Z,91.95
2022-08-17T21:12:05.749Z,92.86
2022-08-17T21:14:56.384Z,93.30
2022-08-17T21:17:40.023Z,93.71
2022-08-17T21:20:32.419Z,93.79
2022-08-17T21:23:08.928Z,94.12
2022-08-17T21:26:04.970Z,94.75
2022-08-17T21:29:30.158Z,94.90
2022-08-17T21:32:03.784Z,95.30
2022-08-17T21:34:37.941Z,95.03
2022-08-17T21:37:19.839Z,95.38
2022-08-17T21:39:52.304Z,95.48
2022-08-17T21:42:29.662Z,95.71
2022-08-17T21:45:00.427Z,95.85
2022-08-17T21:47:29.855Z,96.29
2022-08-17T21:50:24.285Z,96.41
2022-08-17T21:52:54.587Z,96.47
2022-08-17T21:55:29.745Z,96.65
2022-08-17T21:58:11.470Z,96.86
2022-08-17T22:01:12.142Z,96.87
2022-08-17T22:03:47.411Z,97.09
2022-08-17T22:06:23.865Z,96.75
2022-08-17T22:09:09.309Z,96.90
2022-08-17T22:11:56.341Z,96.83
2022-08-17T22:14:53.369Z,96.61
2022-08-17T22:17:18.325Z,96.90
2022-08-17T22:19:50.105Z,97.28
2022-08-17T22:22:34.441Z,97.71
2022-08-17T22:25:06.239Z,97.86
2022-08-17T22:27:52.047Z,97.49
2022-08-17T22:30:30.869Z,97.36
2022-08-17T22:33:00.137Z,97.35
2022-08-17T22:35:36.184Z,97.20
2022-08-17T22:38:18.022Z,97.51
2022-08-17T22:40:50.990Z,97.91
2022-08-17T22:43:21.211Z,97.95
2022-08-17T22:45:55.734Z,98.21
2022-08-17T22:48:26.709Z,98.56
2022-08-17T22:51:12.465Z,99.20
2022-08-17T22:54:09.159Z,99.81
2022-08-17T22:56:54.894Z,99.73
2022-08-17T22:59:41.883Z,99.83
2022-08-17T23:02:27.517Z,100.00
2022-08-17T23:05:11.942Z,100.00
2022-08-17T23:07:45.070Z,100.00
2022-08-17T23:10:15.079Z,100.00
2022-08-17T23:12:46.001Z,100.00
2022-08-17T23:15:19.145Z,100.00
2022-08-17T23:17:46.394Z,100.00
2022-08-17T23:20:15.563Z,100.00
2022-08-17T23:22:44.677Z,100.00
2022-08-17T23:25:28.014Z,100.00
2022-08-17T23:27:57.330Z,100.00
2022-08-17T23:30:25.544Z,100.00
2022-08-17T23:32:54.314Z,100.00
2022-08-17T23:35:39.212Z,100.00
2022-08-17T23:38:12.917Z,100.00
2022-08-17T23:40:40.697Z,100.00
2022-08-17T23:43:24.448Z,100.00
2022-08-17T23:45:54.613Z,100.00
2022-08-17T23:48:35.193Z,100.00
2022-08-17T23:51:08.534Z,100.00
2022-08-17T23:53:36.627Z,100.00
2022-08-17T23:56:09.079Z,100.00
2022-08-17T23:58:38.414Z,100.00
